Decoded Metar for KDYB ( in ) (IATA:) | Meteo·Mobile Aviation Weather
aviador You're here:

KDYB Decoded Metar

in
Report Time2018-08-22 05:35:00
UTC Time2018-08-22 05:38:23
Flight Rules vfr VFR
Wind190° at 04 kt
W.Decomp.*RWY 24: 2.6 kt HW 3.1 kt LCW
W.Rank190° ranks 4
Current wind is below 190° avg. (4.8)
Visibility9999 m
Phenomena:N/A
Clouds:N/A
Expected CloudBase > 800 ft AGL from Temp-Dew spread
CeilingNone
Temp24°C
Dew Point22°C (89% RH)
QNH1016 hPa
Raw Report
KDYB 220535Z AUTO 19004KT 10SM CLR 24/22 A3000 RMK AO1=

Extra information for KDYB:More info

Social comments